sensor_id;sensor_type;location;lat;lon;timestamp;temperature;humidity
5901;DHT22;2976;49.764;9.796;2023-09-19T00:01:15;15.60;99.90
5901;DHT22;2976;49.764;9.796;2023-09-19T00:03:40;15.60;99.90
5901;DHT22;2976;49.764;9.796;2023-09-19T00:06:07;15.50;99.90
5901;DHT22;2976;49.764;9.796;2023-09-19T00:08:34;15.40;99.90
5901;DHT22;2976;49.764;9.796;2023-09-19T00:11:06;15.30;99.90
5901;DHT22;2976;49.764;9.796;2023-09-19T00:13:34;15.30;99.90
5901;DHT22;2976;49.764;9.796;2023-09-19T00:16:01;15.40;99.90
5901;DHT22;2976;49.764;9.796;2023-09-19T00:18:33;15.40;99.90
5901;DHT22;2976;49.764;9.796;2023-09-19T00:21:00;15.40;99.90
5901;DHT22;2976;49.764;9.796;2023-09-19T00:23:26;15.40;99.90
5901;DHT22;2976;49.764;9.796;2023-09-19T00:25:52;15.40;99.90
5901;DHT22;2976;49.764;9.796;2023-09-19T00:28:18;15.40;99.90
5901;DHT22;2976;49.764;9.796;2023-09-19T00:30:45;15.40;99.90
5901;DHT22;2976;49.764;9.796;2023-09-19T00:33:15;15.40;99.90
5901;DHT22;2976;49.764;9.796;2023-09-19T00:35:52;15.40;99.90
5901;DHT22;2976;49.764;9.796;2023-09-19T00:38:18;15.50;99.90
5901;DHT22;2976;49.764;9.796;2023-09-19T00:40:50;15.60;99.90
5901;DHT22;2976;49.764;9.796;2023-09-19T00:43:22;15.70;99.90
5901;DHT22;2976;49.764;9.796;2023-09-19T00:45:51;15.70;99.90
5901;DHT22;2976;49.764;9.796;2023-09-19T00:48:17;15.60;99.90
5901;DHT22;2976;49.764;9.796;2023-09-19T00:50:45;15.60;99.90
5901;DHT22;2976;49.764;9.796;2023-09-19T00:53:14;15.60;99.90
5901;DHT22;2976;49.764;9.796;2023-09-19T00:55:41;15.60;99.90
5901;DHT22;2976;49.764;9.796;2023-09-19T00:58:08;15.60;99.90
5901;DHT22;2976;49.764;9.796;2023-09-19T01:00:36;15.60;99.90
5901;DHT22;2976;49.764;9.796;2023-09-19T01:03:02;15.60;99.90
5901;DHT22;2976;49.764;9.796;2023-09-19T01:05:28;15.60;99.90
5901;DHT22;2976;49.764;9.796;2023-09-19T01:07:55;15.60;99.90
5901;DHT22;2976;49.764;9.796;2023-09-19T01:10:21;15.60;99.90
5901;DHT22;2976;49.764;9.796;2023-09-19T01:13:08;15.50;99.90
5901;DHT22;2976;49.764;9.796;2023-09-19T01:20:57;15.30;99.90
5901;DHT22;2976;49.764;9.796;2023-09-19T01:31:24;15.10;99.90
5901;DHT22;2976;49.764;9.796;2023-09-19T01:34:00;15.10;99.90
5901;DHT22;2976;49.764;9.796;2023-09-19T01:36:28;15.10;99.90
5901;DHT22;2976;49.764;9.796;2023-09-19T01:38:55;15.20;99.90
5901;DHT22;2976;49.764;9.796;2023-09-19T01:41:29;15.20;99.90
5901;DHT22;2976;49.764;9.796;2023-09-19T01:43:59;15.10;99.90
5901;DHT22;2976;49.764;9.796;2023-09-19T01:46:33;15.10;99.90
5901;DHT22;2976;49.764;9.796;2023-09-19T01:49:32;15.10;99.90
5901;DHT22;2976;49.764;9.796;2023-09-19T01:52:12;15.10;99.90
5901;DHT22;2976;49.764;9.796;2023-09-19T01:54:52;15.10;99.90
5901;DHT22;2976;49.764;9.796;2023-09-19T02:02:35;15.30;99.90
5901;DHT22;2976;49.764;9.796;2023-09-19T02:05:02;15.30;99.90
5901;DHT22;2976;49.764;9.796;2023-09-19T02:07:29;15.30;99.90
5901;DHT22;2976;49.764;9.796;2023-09-19T02:10:00;15.30;99.90
5901;DHT22;2976;49.764;9.796;2023-09-19T02:12:26;15.30;99.90
5901;DHT22;2976;49.764;9.796;2023-09-19T02:14:52;15.40;99.90
5901;DHT22;2976;49.764;9.796;2023-09-19T02:17:18;15.40;99.90
5901;DHT22;2976;49.764;9.796;2023-09-19T02:19:44;15.40;99.90
5901;DHT22;2976;49.764;9.796;2023-09-19T02:22:10;15.40;99.90
5901;DHT22;2976;49.764;9.796;2023-09-19T02:24:39;15.40;99.90
5901;DHT22;2976;49.764;9.796;2023-09-19T02:27:05;15.40;99.90
5901;DHT22;2976;49.764;9.796;2023-09-19T02:29:31;15.40;99.90
5901;DHT22;2976;49.764;9.796;2023-09-19T02:31:56;15.30;99.90
5901;DHT22;2976;49.764;9.796;2023-09-19T02:34:22;15.30;99.90
5901;DHT22;2976;49.764;9.796;2023-09-19T02:36:48;15.40;99.90
5901;DHT22;2976;49.764;9.796;2023-09-19T02:39:14;15.40;99.90
5901;DHT22;2976;49.764;9.796;2023-09-19T02:41:39;15.40;99.90
5901;DHT22;2976;49.764;9.796;2023-09-19T02:44:07;15.50;99.90
5901;DHT22;2976;49.764;9.796;2023-09-19T02:46:34;15.60;99.90
5901;DHT22;2976;49.764;9.796;2023-09-19T02:49:01;15.60;99.90
5901;DHT22;2976;49.764;9.796;2023-09-19T02:51:28;15.60;99.90
5901;DHT22;2976;49.764;9.796;2023-09-19T02:53:54;15.60;99.90
5901;DHT22;2976;49.764;9.796;2023-09-19T02:56:20;15.60;99.90
5901;DHT22;2976;49.764;9.796;2023-09-19T02:58:45;15.60;99.90
5901;DHT22;2976;49.764;9.796;2023-09-19T03:01:11;15.50;99.90
5901;DHT22;2976;49.764;9.796;2023-09-19T03:03:37;15.40;99.90
5901;DHT22;2976;49.764;9.796;2023-09-19T03:06:05;15.40;99.90
5901;DHT22;2976;49.764;9.796;2023-09-19T03:08:31;15.30;99.90
5901;DHT22;2976;49.764;9.796;2023-09-19T03:11:03;15.30;99.90
5901;DHT22;2976;49.764;9.796;2023-09-19T03:13:31;15.30;99.90
5901;DHT22;2976;49.764;9.796;2023-09-19T03:15:57;15.30;99.90
5901;DHT22;2976;49.764;9.796;2023-09-19T03:18:24;15.30;99.90
5901;DHT22;2976;49.764;9.796;2023-09-19T03:20:55;15.30;99.90
5901;DHT22;2976;49.764;9.796;2023-09-19T03:23:21;15.40;99.90
5901;DHT22;2976;49.764;9.796;2023-09-19T03:25:47;15.40;99.90
5901;DHT22;2976;49.764;9.796;2023-09-19T03:28:13;15.40;99.90
5901;DHT22;2976;49.764;9.796;2023-09-19T03:30:40;15.40;99.90
5901;DHT22;2976;49.764;9.796;2023-09-19T03:33:06;15.40;99.90
5901;DHT22;2976;49.764;9.796;2023-09-19T03:35:32;15.40;99.90
5901;DHT22;2976;49.764;9.796;2023-09-19T03:37:57;15.30;99.90
5901;DHT22;2976;49.764;9.796;2023-09-19T03:40:23;15.30;99.90
5901;DHT22;2976;49.764;9.796;2023-09-19T03:42:49;15.30;99.90
5901;DHT22;2976;49.764;9.796;2023-09-19T03:45:14;15.30;99.90
5901;DHT22;2976;49.764;9.796;2023-09-19T03:47:41;15.30;99.90
5901;DHT22;2976;49.764;9.796;2023-09-19T03:50:07;15.20;99.90
5901;DHT22;2976;49.764;9.796;2023-09-19T03:52:36;15.20;99.90
5901;DHT22;2976;49.764;9.796;2023-09-19T03:55:02;15.10;99.90
5901;DHT22;2976;49.764;9.796;2023-09-19T03:57:29;15.10;99.90
5901;DHT22;2976;49.764;9.796;2023-09-19T03:59:55;15.00;99.90
5901;DHT22;2976;49.764;9.796;2023-09-19T04:02:21;14.90;99.90
5901;DHT22;2976;49.764;9.796;2023-09-19T04:04:51;14.90;99.90
5901;DHT22;2976;49.764;9.796;2023-09-19T04:07:17;14.90;99.90
5901;DHT22;2976;49.764;9.796;2023-09-19T04:09:44;14.90;99.90
5901;DHT22;2976;49.764;9.796;2023-09-19T04:12:11;14.90;99.90
5901;DHT22;2976;49.764;9.796;2023-09-19T04:14:37;14.90;99.90
5901;DHT22;2976;49.764;9.796;2023-09-19T04:17:03;14.90;99.90
5901;DHT22;2976;49.764;9.796;2023-09-19T04:19:28;14.90;99.90
5901;DHT22;2976;49.764;9.796;2023-09-19T04:21:54;14.80;99.90
5901;DHT22;2976;49.764;9.796;2023-09-19T04:24:19;14.80;99.90
5901;DHT22;2976;49.764;9.796;2023-09-19T04:26:45;14.80;99.90
5901;DHT22;2976;49.764;9.796;2023-09-19T04:29:11;14.80;99.90
5901;DHT22;2976;49.764;9.796;2023-09-19T04:31:39;14.70;99.90
5901;DHT22;2976;49.764;9.796;2023-09-19T04:34:06;14.70;99.90
5901;DHT22;2976;49.764;9.796;2023-09-19T04:36:31;14.70;99.90
5901;DHT22;2976;49.764;9.796;2023-09-19T04:38:57;14.70;99.90
5901;DHT22;2976;49.764;9.796;2023-09-19T04:41:23;14.60;99.90
5901;DHT22;2976;49.764;9.796;2023-09-19T04:43:48;14.60;99.90
5901;DHT22;2976;49.764;9.796;2023-09-19T04:46:16;14.50;99.90
5901;DHT22;2976;49.764;9.796;2023-09-19T04:48:43;14.60;99.90
5901;DHT22;2976;49.764;9.796;2023-09-19T04:51:08;14.50;99.90
5901;DHT22;2976;49.764;9.796;2023-09-19T04:53:34;14.50;99.90
5901;DHT22;2976;49.764;9.796;2023-09-19T04:55:59;14.50;99.90
5901;DHT22;2976;49.764;9.796;2023-09-19T04:58:25;14.50;99.90
5901;DHT22;2976;49.764;9.796;2023-09-19T05:00:50;14.40;99.90
5901;DHT22;2976;49.764;9.796;2023-09-19T05:03:17;14.30;99.90
5901;DHT22;2976;49.764;9.796;2023-09-19T05:05:42;14.30;99.90
5901;DHT22;2976;49.764;9.796;2023-09-19T05:08:08;14.40;99.90
5901;DHT22;2976;49.764;9.796;2023-09-19T05:10:35;14.40;99.90
5901;DHT22;2976;49.764;9.796;2023-09-19T05:13:04;14.40;99.90
5901;DHT22;2976;49.764;9.796;2023-09-19T05:15:30;14.40;99.90
5901;DHT22;2976;49.764;9.796;2023-09-19T05:17:56;14.30;99.90
5901;DHT22;2976;49.764;9.796;2023-09-19T05:20:22;14.40;99.90
5901;DHT22;2976;49.764;9.796;2023-09-19T05:22:58;14.30;99.90
5901;DHT22;2976;49.764;9.796;2023-09-19T05:25:26;14.40;99.90
5901;DHT22;2976;49.764;9.796;2023-09-19T05:27:58;14.40;99.90
5901;DHT22;2976;49.764;9.796;2023-09-19T05:30:25;14.50;99.90
5901;DHT22;2976;49.764;9.796;2023-09-19T05:32:53;14.60;99.90
5901;DHT22;2976;49.764;9.796;2023-09-19T05:35:19;14.70;99.90
5901;DHT22;2976;49.764;9.796;2023-09-19T05:37:47;14.80;99.90
5901;DHT22;2976;49.764;9.796;2023-09-19T05:40:14;14.90;99.90
5901;DHT22;2976;49.764;9.796;2023-09-19T05:42:41;14.90;99.90
5901;DHT22;2976;49.764;9.796;2023-09-19T05:45:09;15.00;99.90
5901;DHT22;2976;49.764;9.796;2023-09-19T05:47:38;15.10;99.90
5901;DHT22;2976;49.764;9.796;2023-09-19T05:50:06;15.20;99.90
5901;DHT22;2976;49.764;9.796;2023-09-19T05:52:33;15.30;99.90
5901;DHT22;2976;49.764;9.796;2023-09-19T05:54:58;15.30;99.90
5901;DHT22;2976;49.764;9.796;2023-09-19T05:57:25;15.30;99.90
5901;DHT22;2976;49.764;9.796;2023-09-19T05:59:50;15.30;99.90
5901;DHT22;2976;49.764;9.796;2023-09-19T06:02:16;15.30;99.90
5901;DHT22;2976;49.764;9.796;2023-09-19T06:04:41;15.40;99.90
5901;DHT22;2976;49.764;9.796;2023-09-19T06:07:07;15.50;99.90
5901;DHT22;2976;49.764;9.796;2023-09-19T06:09:33;15.60;99.90
5901;DHT22;2976;49.764;9.796;2023-09-19T06:11:59;15.70;99.90
5901;DHT22;2976;49.764;9.796;2023-09-19T06:14:28;16.00;99.90
5901;DHT22;2976;49.764;9.796;2023-09-19T06:16:54;16.20;99.90
5901;DHT22;2976;49.764;9.796;2023-09-19T06:19:20;16.40;99.90
5901;DHT22;2976;49.764;9.796;2023-09-19T06:21:48;16.70;99.90
5901;DHT22;2976;49.764;9.796;2023-09-19T06:24:14;17.10;99.90
5901;DHT22;2976;49.764;9.796;2023-09-19T06:26:40;17.40;99.90
5901;DHT22;2976;49.764;9.796;2023-09-19T06:29:06;17.50;99.90
5901;DHT22;2976;49.764;9.796;2023-09-19T06:31:34;17.40;99.90
5901;DHT22;2976;49.764;9.796;2023-09-19T06:34:00;17.30;99.90
5901;DHT22;2976;49.764;9.796;2023-09-19T06:36:25;16.90;99.90
5901;DHT22;2976;49.764;9.796;2023-09-19T06:38:51;16.70;99.90
5901;DHT22;2976;49.764;9.796;2023-09-19T06:41:17;16.50;99.90
5901;DHT22;2976;49.764;9.796;2023-09-19T06:43:43;16.30;99.90
5901;DHT22;2976;49.764;9.796;2023-09-19T06:46:09;16.10;99.90
5901;DHT22;2976;49.764;9.796;2023-09-19T06:48:35;16.10;99.90
5901;DHT22;2976;49.764;9.796;2023-09-19T06:51:00;16.10;99.90
5901;DHT22;2976;49.764;9.796;2023-09-19T06:53:31;16.10;99.90
5901;DHT22;2976;49.764;9.796;2023-09-19T06:55:57;16.10;99.90
5901;DHT22;2976;49.764;9.796;2023-09-19T06:58:23;16.20;99.90
5901;DHT22;2976;49.764;9.796;2023-09-19T07:00:48;16.20;99.90
5901;DHT22;2976;49.764;9.796;2023-09-19T07:03:15;16.40;99.90
5901;DHT22;2976;49.764;9.796;2023-09-19T07:05:44;16.70;99.90
5901;DHT22;2976;49.764;9.796;2023-09-19T07:08:10;16.80;99.90
5901;DHT22;2976;49.764;9.796;2023-09-19T07:10:38;17.10;99.90
5901;DHT22;2976;49.764;9.796;2023-09-19T07:13:07;17.00;99.90
5901;DHT22;2976;49.764;9.796;2023-09-19T07:15:37;17.00;99.90
5901;DHT22;2976;49.764;9.796;2023-09-19T07:18:12;16.80;99.90
5901;DHT22;2976;49.764;9.796;2023-09-19T07:20:38;16.90;99.90
5901;DHT22;2976;49.764;9.796;2023-09-19T07:23:04;16.90;99.90
5901;DHT22;2976;49.764;9.796;2023-09-19T07:25:29;16.80;99.90
5901;DHT22;2976;49.764;9.796;2023-09-19T07:27:56;16.90;99.90
5901;DHT22;2976;49.764;9.796;2023-09-19T07:30:22;17.00;99.90
5901;DHT22;2976;49.764;9.796;2023-09-19T07:32:47;17.00;99.90
5901;DHT22;2976;49.764;9.796;2023-09-19T07:35:13;17.30;99.90
5901;DHT22;2976;49.764;9.796;2023-09-19T07:37:40;17.40;99.90
5901;DHT22;2976;49.764;9.796;2023-09-19T07:40:06;17.40;99.90
5901;DHT22;2976;49.764;9.796;2023-09-19T07:42:38;17.40;99.90
5901;DHT22;2976;49.764;9.796;2023-09-19T07:45:06;17.60;99.90
5901;DHT22;2976;49.764;9.796;2023-09-19T07:47:33;17.40;99.90
5901;DHT22;2976;49.764;9.796;2023-09-19T07:49:59;17.50;99.90
5901;DHT22;2976;49.764;9.796;2023-09-19T07:52:27;17.60;75.20
5901;DHT22;2976;49.764;9.796;2023-09-19T07:54:53;17.80;41.30
5901;DHT22;2976;49.764;9.796;2023-09-19T07:57:19;17.70;57.10
5901;DHT22;2976;49.764;9.796;2023-09-19T07:59:45;17.60;91.00
5901;DHT22;2976;49.764;9.796;2023-09-19T08:02:11;17.60;99.90
5901;DHT22;2976;49.764;9.796;2023-09-19T08:04:44;17.50;79.80
5901;DHT22;2976;49.764;9.796;2023-09-19T08:07:15;17.20;79.80
5901;DHT22;2976;49.764;9.796;2023-09-19T08:09:40;17.00;86.90
5901;DHT22;2976;49.764;9.796;2023-09-19T08:12:07;16.90;99.90
5901;DHT22;2976;49.764;9.796;2023-09-19T08:14:36;16.90;99.90
5901;DHT22;2976;49.764;9.796;2023-09-19T08:17:02;17.00;91.20
5901;DHT22;2976;49.764;9.796;2023-09-19T08:19:28;17.00;84.70
5901;DHT22;2976;49.764;9.796;2023-09-19T08:21:58;17.10;7.00
5901;DHT22;2976;49.764;9.796;2023-09-19T08:24:28;17.10;33.20
5901;DHT22;2976;49.764;9.796;2023-09-19T08:26:55;17.30;3.90
5901;DHT22;2976;49.764;9.796;2023-09-19T08:29:21;17.40;1.40
5901;DHT22;2976;49.764;9.796;2023-09-19T08:31:47;17.40;29.40
5901;DHT22;2976;49.764;9.796;2023-09-19T08:34:15;17.50;7.70
5901;DHT22;2976;49.764;9.796;2023-09-19T08:36:40;17.70;1.00
5901;DHT22;2976;49.764;9.796;2023-09-19T08:39:08;18.00;1.00
5901;DHT22;2976;49.764;9.796;2023-09-19T08:41:34;17.90;1.00
5901;DHT22;2976;49.764;9.796;2023-09-19T08:44:00;18.00;1.00
5901;DHT22;2976;49.764;9.796;2023-09-19T08:46:30;18.00;1.00
5901;DHT22;2976;49.764;9.796;2023-09-19T08:49:03;18.00;1.00
5901;DHT22;2976;49.764;9.796;2023-09-19T08:51:39;18.00;1.00
5901;DHT22;2976;49.764;9.796;2023-09-19T08:54:07;18.10;1.00
5901;DHT22;2976;49.764;9.796;2023-09-19T08:56:33;18.10;1.00
5901;DHT22;2976;49.764;9.796;2023-09-19T08:59:06;17.90;1.00
5901;DHT22;2976;49.764;9.796;2023-09-19T09:01:35;17.80;99.90
5901;DHT22;2976;49.764;9.796;2023-09-19T09:04:02;17.60;99.90
5901;DHT22;2976;49.764;9.796;2023-09-19T09:06:28;17.50;1.00
5901;DHT22;2976;49.764;9.796;2023-09-19T09:08:54;17.50;1.00
5901;DHT22;2976;49.764;9.796;2023-09-19T09:11:21;17.80;99.90
5901;DHT22;2976;49.764;9.796;2023-09-19T09:13:48;17.70;99.90
5901;DHT22;2976;49.764;9.796;2023-09-19T09:16:15;17.80;99.90
5901;DHT22;2976;49.764;9.796;2023-09-19T09:18:44;17.70;1.00
5901;DHT22;2976;49.764;9.796;2023-09-19T09:21:11;17.70;1.00
5901;DHT22;2976;49.764;9.796;2023-09-19T09:23:36;17.70;1.00
5901;DHT22;2976;49.764;9.796;2023-09-19T09:26:02;17.80;99.90
5901;DHT22;2976;49.764;9.796;2023-09-19T09:28:30;17.90;1.00
5901;DHT22;2976;49.764;9.796;2023-09-19T09:30:56;17.80;99.90
5901;DHT22;2976;49.764;9.796;2023-09-19T09:33:23;17.80;45.50
5901;DHT22;2976;49.764;9.796;2023-09-19T09:35:59;17.80;99.90
5901;DHT22;2976;49.764;9.796;2023-09-19T09:38:45;18.00;99.90
5901;DHT22;2976;49.764;9.796;2023-09-19T09:41:11;17.90;99.90
5901;DHT22;2976;49.764;9.796;2023-09-19T09:43:41;17.80;99.90
5901;DHT22;2976;49.764;9.796;2023-09-19T09:46:16;17.70;1.00
5901;DHT22;2976;49.764;9.796;2023-09-19T09:48:48;17.80;1.00
5901;DHT22;2976;49.764;9.796;2023-09-19T09:51:43;17.80;99.90
5901;DHT22;2976;49.764;9.796;2023-09-19T09:54:23;18.00;99.90
5901;DHT22;2976;49.764;9.796;2023-09-19T09:56:57;18.20;99.90
5901;DHT22;2976;49.764;9.796;2023-09-19T09:59:54;18.40;1.00
5901;DHT22;2976;49.764;9.796;2023-09-19T10:02:38;18.20;99.90
5901;DHT22;2976;49.764;9.796;2023-09-19T10:05:15;18.40;1.00
5901;DHT22;2976;49.764;9.796;2023-09-19T10:07:54;18.60;99.90
5901;DHT22;2976;49.764;9.796;2023-09-19T10:10:37;18.50;1.00
5901;DHT22;2976;49.764;9.796;2023-09-19T10:13:25;18.20;99.90
5901;DHT22;2976;49.764;9.796;2023-09-19T10:15:55;18.10;99.90
5901;DHT22;2976;49.764;9.796;2023-09-19T10:18:26;18.00;99.90
5901;DHT22;2976;49.764;9.796;2023-09-19T10:20:53;18.00;99.90
5901;DHT22;2976;49.764;9.796;2023-09-19T10:23:21;18.00;99.90
5901;DHT22;2976;49.764;9.796;2023-09-19T10:25:51;17.90;1.00
5901;DHT22;2976;49.764;9.796;2023-09-19T10:28:19;17.90;1.00
5901;DHT22;2976;49.764;9.796;2023-09-19T10:30:51;18.00;1.00
5901;DHT22;2976;49.764;9.796;2023-09-19T10:33:20;18.20;1.00
5901;DHT22;2976;49.764;9.796;2023-09-19T10:35:47;18.50;1.00
5901;DHT22;2976;49.764;9.796;2023-09-19T10:38:14;18.90;1.00
5901;DHT22;2976;49.764;9.796;2023-09-19T10:40:42;19.20;99.90
5901;DHT22;2976;49.764;9.796;2023-09-19T10:43:13;19.50;1.00
5901;DHT22;2976;49.764;9.796;2023-09-19T10:45:44;19.80;99.90
5901;DHT22;2976;49.764;9.796;2023-09-19T10:48:10;20.10;99.90
5901;DHT22;2976;49.764;9.796;2023-09-19T10:53:10;20.10;99.90
5901;DHT22;2976;49.764;9.796;2023-09-19T10:55:37;20.30;99.90
5901;DHT22;2976;49.764;9.796;2023-09-19T10:58:05;20.10;99.90
5901;DHT22;2976;49.764;9.796;2023-09-19T11:00:56;19.80;99.90
5901;DHT22;2976;49.764;9.796;2023-09-19T11:03:23;19.70;99.90
5901;DHT22;2976;49.764;9.796;2023-09-19T11:06:07;19.80;99.90
5901;DHT22;2976;49.764;9.796;2023-09-19T11:08:59;19.90;99.90
5901;DHT22;2976;49.764;9.796;2023-09-19T11:11:42;19.90;99.90
5901;DHT22;2976;49.764;9.796;2023-09-19T11:30:50;19.10;99.90
5901;DHT22;2976;49.764;9.796;2023-09-19T11:33:23;19.20;99.90
5901;DHT22;2976;49.764;9.796;2023-09-19T11:36:08;19.20;99.90
5901;DHT22;2976;49.764;9.796;2023-09-19T11:46:32;19.60;71.30
5901;DHT22;2976;49.764;9.796;2023-09-19T11:49:08;19.50;60.30
5901;DHT22;2976;49.764;9.796;2023-09-19T11:51:41;19.50;58.90
5901;DHT22;2976;49.764;9.796;2023-09-19T11:54:11;19.40;74.70
5901;DHT22;2976;49.764;9.796;2023-09-19T11:56:44;19.60;96.70
5901;DHT22;2976;49.764;9.796;2023-09-19T11:59:11;19.70;91.80
5901;DHT22;2976;49.764;9.796;2023-09-19T12:01:37;19.80;85.30
5901;DHT22;2976;49.764;9.796;2023-09-19T12:04:07;19.90;99.90
5901;DHT22;2976;49.764;9.796;2023-09-19T12:06:33;20.10;82.40
5901;DHT22;2976;49.764;9.796;2023-09-19T12:09:00;19.90;85.70
5901;DHT22;2976;49.764;9.796;2023-09-19T12:11:31;19.90;77.30
5901;DHT22;2976;49.764;9.796;2023-09-19T12:14:01;19.50;86.80
5901;DHT22;2976;49.764;9.796;2023-09-19T12:16:27;19.30;99.90
5901;DHT22;2976;49.764;9.796;2023-09-19T12:18:56;19.20;99.90
5901;DHT22;2976;49.764;9.796;2023-09-19T12:24:06;19.20;99.90
5901;DHT22;2976;49.764;9.796;2023-09-19T12:26:42;19.30;99.90
5901;DHT22;2976;49.764;9.796;2023-09-19T12:29:21;19.20;98.80
5901;DHT22;2976;49.764;9.796;2023-09-19T12:31:50;19.30;99.90
5901;DHT22;2976;49.764;9.796;2023-09-19T12:34:21;19.60;86.90
5901;DHT22;2976;49.764;9.796;2023-09-19T12:36:47;19.80;56.20
5901;DHT22;2976;49.764;9.796;2023-09-19T12:39:23;19.90;56.80
5901;DHT22;2976;49.764;9.796;2023-09-19T12:41:50;19.80;56.30
5901;DHT22;2976;49.764;9.796;2023-09-19T12:44:17;19.90;56.30
5901;DHT22;2976;49.764;9.796;2023-09-19T12:46:44;19.80;60.50
5901;DHT22;2976;49.764;9.796;2023-09-19T12:49:18;19.80;65.70
5901;DHT22;2976;49.764;9.796;2023-09-19T12:51:45;19.90;50.30
5901;DHT22;2976;49.764;9.796;2023-09-19T12:54:11;19.90;69.50
5901;DHT22;2976;49.764;9.796;2023-09-19T12:56:41;20.00;85.70
5901;DHT22;2976;49.764;9.796;2023-09-19T12:59:29;20.40;57.60
5901;DHT22;2976;49.764;9.796;2023-09-19T13:02:04;20.40;37.40
5901;DHT22;2976;49.764;9.796;2023-09-19T13:04:39;20.20;18.20
5901;DHT22;2976;49.764;9.796;2023-09-19T13:07:07;19.90;18.40
5901;DHT22;2976;49.764;9.796;2023-09-19T13:09:34;19.90;17.90
5901;DHT22;2976;49.764;9.796;2023-09-19T13:12:00;19.80;19.80
5901;DHT22;2976;49.764;9.796;2023-09-19T13:14:29;19.70;27.00
5901;DHT22;2976;49.764;9.796;2023-09-19T13:17:02;19.90;32.10
5901;DHT22;2976;49.764;9.796;2023-09-19T13:19:45;20.00;40.50
5901;DHT22;2976;49.764;9.796;2023-09-19T13:25:13;19.70;39.00
5901;DHT22;2976;49.764;9.796;2023-09-19T13:27:44;19.90;56.70
5901;DHT22;2976;49.764;9.796;2023-09-19T13:30:11;19.90;40.80
5901;DHT22;2976;49.764;9.796;2023-09-19T13:32:37;19.80;46.30
5901;DHT22;2976;49.764;9.796;2023-09-19T13:35:05;19.60;37.30
5901;DHT22;2976;49.764;9.796;2023-09-19T13:37:32;19.70;35.20
5901;DHT22;2976;49.764;9.796;2023-09-19T13:39:58;19.80;56.90
5901;DHT22;2976;49.764;9.796;2023-09-19T13:42:25;20.10;30.30
5901;DHT22;2976;49.764;9.796;2023-09-19T13:44:50;20.20;21.90
5901;DHT22;2976;49.764;9.796;2023-09-19T13:47:16;20.20;20.70
5901;DHT22;2976;49.764;9.796;2023-09-19T13:49:50;20.30;26.90
5901;DHT22;2976;49.764;9.796;2023-09-19T13:52:18;20.30;24.60
5901;DHT22;2976;49.764;9.796;2023-09-19T13:54:44;20.40;29.20
5901;DHT22;2976;49.764;9.796;2023-09-19T13:57:09;20.40;33.60
5901;DHT22;2976;49.764;9.796;2023-09-19T13:59:35;20.40;23.60
5901;DHT22;2976;49.764;9.796;2023-09-19T14:02:00;20.30;25.90
5901;DHT22;2976;49.764;9.796;2023-09-19T14:04:28;20.20;20.60
5901;DHT22;2976;49.764;9.796;2023-09-19T14:06:54;20.30;19.80
5901;DHT22;2976;49.764;9.796;2023-09-19T14:09:20;20.30;36.90
5901;DHT22;2976;49.764;9.796;2023-09-19T14:11:46;20.30;22.40
5901;DHT22;2976;49.764;9.796;2023-09-19T14:14:13;20.20;23.90
5901;DHT22;2976;49.764;9.796;2023-09-19T14:16:40;20.10;21.30
5901;DHT22;2976;49.764;9.796;2023-09-19T14:19:07;20.00;22.90
5901;DHT22;2976;49.764;9.796;2023-09-19T14:21:33;20.00;24.10
5901;DHT22;2976;49.764;9.796;2023-09-19T14:23:59;19.90;25.40
5901;DHT22;2976;49.764;9.796;2023-09-19T14:26:24;20.00;31.00
5901;DHT22;2976;49.764;9.796;2023-09-19T14:28:50;20.00;30.00
5901;DHT22;2976;49.764;9.796;2023-09-19T14:31:15;20.10;32.80
5901;DHT22;2976;49.764;9.796;2023-09-19T14:33:41;20.30;32.00
5901;DHT22;2976;49.764;9.796;2023-09-19T14:36:08;20.30;28.70
5901;DHT22;2976;49.764;9.796;2023-09-19T14:38:35;20.30;25.50
5901;DHT22;2976;49.764;9.796;2023-09-19T14:41:05;20.40;28.00
5901;DHT22;2976;49.764;9.796;2023-09-19T14:43:31;20.40;29.50
5901;DHT22;2976;49.764;9.796;2023-09-19T14:46:06;20.40;28.10
5901;DHT22;2976;49.764;9.796;2023-09-19T14:48:36;20.30;27.20
5901;DHT22;2976;49.764;9.796;2023-09-19T14:51:03;20.20;25.80
5901;DHT22;2976;49.764;9.796;2023-09-19T14:53:29;20.10;32.40
5901;DHT22;2976;49.764;9.796;2023-09-19T14:55:55;20.10;36.70
5901;DHT22;2976;49.764;9.796;2023-09-19T14:58:21;20.10;31.50
5901;DHT22;2976;49.764;9.796;2023-09-19T15:00:47;20.00;28.20
5901;DHT22;2976;49.764;9.796;2023-09-19T15:03:12;20.00;30.10
5901;DHT22;2976;49.764;9.796;2023-09-19T15:05:39;20.00;28.20
5901;DHT22;2976;49.764;9.796;2023-09-19T15:08:04;20.00;31.60
5901;DHT22;2976;49.764;9.796;2023-09-19T15:10:31;20.00;36.50
5901;DHT22;2976;49.764;9.796;2023-09-19T15:12:57;20.10;35.20
5901;DHT22;2976;49.764;9.796;2023-09-19T15:15:22;20.00;39.70
5901;DHT22;2976;49.764;9.796;2023-09-19T15:17:48;20.00;41.10
5901;DHT22;2976;49.764;9.796;2023-09-19T15:20:14;20.00;48.80
5901;DHT22;2976;49.764;9.796;2023-09-19T15:22:40;20.00;49.20
5901;DHT22;2976;49.764;9.796;2023-09-19T15:25:06;19.90;43.90
5901;DHT22;2976;49.764;9.796;2023-09-19T15:27:32;19.80;48.30
5901;DHT22;2976;49.764;9.796;2023-09-19T15:30:00;19.80;54.10
5901;DHT22;2976;49.764;9.796;2023-09-19T15:32:28;19.90;56.20
5901;DHT22;2976;49.764;9.796;2023-09-19T15:34:53;19.80;56.10
5901;DHT22;2976;49.764;9.796;2023-09-19T15:37:19;19.80;75.30
5901;DHT22;2976;49.764;9.796;2023-09-19T15:39:46;19.80;72.80
5901;DHT22;2976;49.764;9.796;2023-09-19T15:42:11;19.80;71.20
5901;DHT22;2976;49.764;9.796;2023-09-19T15:44:37;19.90;74.10
5901;DHT22;2976;49.764;9.796;2023-09-19T15:47:04;19.90;75.80
5901;DHT22;2976;49.764;9.796;2023-09-19T15:49:29;19.90;74.80
5901;DHT22;2976;49.764;9.796;2023-09-19T15:51:55;19.90;81.40
5901;DHT22;2976;49.764;9.796;2023-09-19T15:54:20;19.90;82.10
5901;DHT22;2976;49.764;9.796;2023-09-19T15:56:47;19.90;93.90
5901;DHT22;2976;49.764;9.796;2023-09-19T15:59:14;19.90;98.00
5901;DHT22;2976;49.764;9.796;2023-09-19T16:01:44;19.80;99.70
5901;DHT22;2976;49.764;9.796;2023-09-19T16:04:10;19.80;99.90
5901;DHT22;2976;49.764;9.796;2023-09-19T16:06:37;19.70;99.90
5901;DHT22;2976;49.764;9.796;2023-09-19T16:09:04;19.70;99.90
5901;DHT22;2976;49.764;9.796;2023-09-19T16:11:32;19.60;99.90
5901;DHT22;2976;49.764;9.796;2023-09-19T16:13:58;19.60;99.90
5901;DHT22;2976;49.764;9.796;2023-09-19T16:16:25;19.70;99.90
5901;DHT22;2976;49.764;9.796;2023-09-19T16:18:53;19.70;99.90
5901;DHT22;2976;49.764;9.796;2023-09-19T16:21:23;19.70;99.90
5901;DHT22;2976;49.764;9.796;2023-09-19T16:23:50;19.60;99.90
5901;DHT22;2976;49.764;9.796;2023-09-19T16:26:16;19.50;99.90
5901;DHT22;2976;49.764;9.796;2023-09-19T16:28:45;19.50;99.90
5901;DHT22;2976;49.764;9.796;2023-09-19T16:31:11;19.50;99.90
5901;DHT22;2976;49.764;9.796;2023-09-19T16:33:38;19.40;99.90
5901;DHT22;2976;49.764;9.796;2023-09-19T16:36:08;19.30;99.90
5901;DHT22;2976;49.764;9.796;2023-09-19T16:38:35;19.20;99.90
5901;DHT22;2976;49.764;9.796;2023-09-19T16:41:02;19.10;99.90
5901;DHT22;2976;49.764;9.796;2023-09-19T16:43:28;19.00;99.90
5901;DHT22;2976;49.764;9.796;2023-09-19T16:45:58;18.90;99.90
5901;DHT22;2976;49.764;9.796;2023-09-19T16:48:25;19.00;99.90
5901;DHT22;2976;49.764;9.796;2023-09-19T16:50:52;18.90;99.90
5901;DHT22;2976;49.764;9.796;2023-09-19T16:53:18;18.90;99.90
5901;DHT22;2976;49.764;9.796;2023-09-19T16:55:45;18.90;99.90
5901;DHT22;2976;49.764;9.796;2023-09-19T16:58:12;18.90;99.90
5901;DHT22;2976;49.764;9.796;2023-09-19T17:00:37;18.80;99.90